sensor_id;sensor_type;location;lat;lon;timestamp;pressure;altitude;pressure_sealevel;temperature;humidity
23733;BME280;12047;53.450;-2.286;2023-09-12T00:03:49;101019.88;;;23.18;100.00
23733;BME280;12047;53.450;-2.286;2023-09-12T00:08:51;101022.13;;;23.28;100.00
23733;BME280;12047;53.450;-2.286;2023-09-12T00:13:52;101015.44;;;23.37;100.00
23733;BME280;12047;53.450;-2.286;2023-09-12T00:18:52;101016.22;;;23.51;100.00
23733;BME280;12047;53.450;-2.286;2023-09-12T00:23:53;101017.94;;;23.38;100.00
23733;BME280;12047;53.450;-2.286;2023-09-12T00:28:53;101014.34;;;22.93;100.00
23733;BME280;12047;53.450;-2.286;2023-09-12T00:33:54;101013.78;;;23.36;100.00
23733;BME280;12047;53.450;-2.286;2023-09-12T00:38:54;101017.41;;;23.10;100.00
23733;BME280;12047;53.450;-2.286;2023-09-12T00:43:54;101009.06;;;23.25;100.00
23733;BME280;12047;53.450;-2.286;2023-09-12T00:48:57;101001.91;;;23.37;100.00
23733;BME280;12047;53.450;-2.286;2023-09-12T00:53:57;101003.13;;;23.48;100.00
23733;BME280;12047;53.450;-2.286;2023-09-12T00:58:58;101005.06;;;23.34;100.00
23733;BME280;12047;53.450;-2.286;2023-09-12T01:03:59;100992.34;;;23.41;100.00
23733;BME280;12047;53.450;-2.286;2023-09-12T01:09:00;100997.91;;;23.53;100.00
23733;BME280;12047;53.450;-2.286;2023-09-12T01:14:00;100989.22;;;23.44;100.00
23733;BME280;12047;53.450;-2.286;2023-09-12T01:19:01;100986.81;;;23.23;100.00
23733;BME280;12047;53.450;-2.286;2023-09-12T01:29:04;100984.38;;;23.01;100.00
23733;BME280;12047;53.450;-2.286;2023-09-12T01:34:11;100988.16;;;23.00;100.00
23733;BME280;12047;53.450;-2.286;2023-09-12T01:39:11;100973.44;;;22.63;100.00
23733;BME280;12047;53.450;-2.286;2023-09-12T01:44:13;100980.19;;;23.05;100.00
23733;BME280;12047;53.450;-2.286;2023-09-12T01:49:15;100986.50;;;22.93;100.00
23733;BME280;12047;53.450;-2.286;2023-09-12T01:54:20;100984.75;;;23.12;100.00
23733;BME280;12047;53.450;-2.286;2023-09-12T01:59:21;100987.03;;;23.15;100.00
23733;BME280;12047;53.450;-2.286;2023-09-12T02:04:22;100989.44;;;23.42;100.00
23733;BME280;12047;53.450;-2.286;2023-09-12T02:09:22;100987.03;;;23.15;100.00
23733;BME280;12047;53.450;-2.286;2023-09-12T02:14:22;100993.00;;;23.30;100.00
23733;BME280;12047;53.450;-2.286;2023-09-12T02:19:23;100990.59;;;23.02;100.00
23733;BME280;12047;53.450;-2.286;2023-09-12T02:24:23;100983.59;;;22.74;100.00
23733;BME280;12047;53.450;-2.286;2023-09-12T02:29:24;100984.84;;;22.65;100.00
23733;BME280;12047;53.450;-2.286;2023-09-12T02:34:24;100983.19;;;22.91;100.00
23733;BME280;12047;53.450;-2.286;2023-09-12T02:39:25;100989.03;;;22.42;100.00
23733;BME280;12047;53.450;-2.286;2023-09-12T02:44:25;100988.41;;;21.32;100.00
23733;BME280;12047;53.450;-2.286;2023-09-12T02:49:26;100986.97;;;20.95;100.00
23733;BME280;12047;53.450;-2.286;2023-09-12T02:54:26;100989.78;;;20.81;100.00
23733;BME280;12047;53.450;-2.286;2023-09-12T02:59:26;100981.56;;;20.33;100.00
23733;BME280;12047;53.450;-2.286;2023-09-12T03:04:27;100984.34;;;20.40;100.00
23733;BME280;12047;53.450;-2.286;2023-09-12T03:09:28;100983.09;;;20.70;100.00
23733;BME280;12047;53.450;-2.286;2023-09-12T03:14:29;100976.97;;;20.48;100.00
23733;BME280;12047;53.450;-2.286;2023-09-12T03:19:30;100977.88;;;20.62;100.00
23733;BME280;12047;53.450;-2.286;2023-09-12T03:24:30;100982.41;;;20.12;100.00
23733;BME280;12047;53.450;-2.286;2023-09-12T03:29:31;100977.53;;;20.44;100.00
23733;BME280;12047;53.450;-2.286;2023-09-12T03:34:31;100968.53;;;20.36;100.00
23733;BME280;12047;53.450;-2.286;2023-09-12T03:39:32;100978.41;;;20.29;100.00
23733;BME280;12047;53.450;-2.286;2023-09-12T03:44:32;100969.53;;;20.29;100.00
23733;BME280;12047;53.450;-2.286;2023-09-12T03:49:33;100972.97;;;20.72;100.00
23733;BME280;12047;53.450;-2.286;2023-09-12T03:54:33;100976.31;;;20.46;100.00
23733;BME280;12047;53.450;-2.286;2023-09-12T03:59:34;100973.41;;;19.77;100.00
23733;BME280;12047;53.450;-2.286;2023-09-12T04:04:34;100967.84;;;20.00;100.00
23733;BME280;12047;53.450;-2.286;2023-09-12T04:09:35;100969.06;;;19.97;100.00
23733;BME280;12047;53.450;-2.286;2023-09-12T04:14:35;100968.16;;;19.90;100.00
23733;BME280;12047;53.450;-2.286;2023-09-12T04:19:36;100975.19;;;19.91;100.00
23733;BME280;12047;53.450;-2.286;2023-09-12T04:24:36;100976.25;;;20.40;100.00
23733;BME280;12047;53.450;-2.286;2023-09-12T04:29:37;100968.28;;;19.46;100.00
23733;BME280;12047;53.450;-2.286;2023-09-12T04:34:37;100970.19;;;19.88;100.00
23733;BME280;12047;53.450;-2.286;2023-09-12T04:39:38;100968.03;;;19.77;100.00
23733;BME280;12047;53.450;-2.286;2023-09-12T04:44:40;100979.44;;;19.79;100.00
23733;BME280;12047;53.450;-2.286;2023-09-12T04:49:43;100996.75;;;19.41;100.00
23733;BME280;12047;53.450;-2.286;2023-09-12T04:54:43;101007.09;;;20.16;100.00
23733;BME280;12047;53.450;-2.286;2023-09-12T04:59:44;101018.94;;;19.79;100.00
23733;BME280;12047;53.450;-2.286;2023-09-12T05:04:44;101007.41;;;19.34;100.00
23733;BME280;12047;53.450;-2.286;2023-09-12T05:09:45;101012.06;;;19.11;100.00
23733;BME280;12047;53.450;-2.286;2023-09-12T05:14:45;101009.94;;;19.21;100.00
23733;BME280;12047;53.450;-2.286;2023-09-12T05:19:45;101007.91;;;19.08;100.00
23733;BME280;12047;53.450;-2.286;2023-09-12T05:24:46;101017.53;;;19.17;100.00
23733;BME280;12047;53.450;-2.286;2023-09-12T05:29:46;101026.34;;;19.11;100.00
23733;BME280;12047;53.450;-2.286;2023-09-12T05:34:47;101026.25;;;18.90;100.00
23733;BME280;12047;53.450;-2.286;2023-09-12T05:39:49;101030.41;;;19.51;100.00
23733;BME280;12047;53.450;-2.286;2023-09-12T05:44:50;101040.50;;;19.34;100.00
23733;BME280;12047;53.450;-2.286;2023-09-12T05:49:55;101045.34;;;19.54;100.00
23733;BME280;12047;53.450;-2.286;2023-09-12T05:54:56;101056.97;;;19.97;100.00
23733;BME280;12047;53.450;-2.286;2023-09-12T05:59:56;101060.31;;;19.63;100.00
23733;BME280;12047;53.450;-2.286;2023-09-12T06:04:56;101065.91;;;19.83;100.00
23733;BME280;12047;53.450;-2.286;2023-09-12T06:09:57;101064.19;;;19.75;100.00
23733;BME280;12047;53.450;-2.286;2023-09-12T06:14:58;101074.94;;;19.75;100.00
23733;BME280;12047;53.450;-2.286;2023-09-12T06:19:58;101076.00;;;19.95;100.00
23733;BME280;12047;53.450;-2.286;2023-09-12T06:24:59;101068.31;;;20.14;100.00
23733;BME280;12047;53.450;-2.286;2023-09-12T06:30:00;101072.28;;;19.60;100.00
23733;BME280;12047;53.450;-2.286;2023-09-12T06:35:01;101071.81;;;19.42;100.00
23733;BME280;12047;53.450;-2.286;2023-09-12T06:40:01;101067.66;;;19.25;100.00
23733;BME280;12047;53.450;-2.286;2023-09-12T06:45:02;101072.28;;;19.16;100.00
23733;BME280;12047;53.450;-2.286;2023-09-12T06:50:03;101073.75;;;19.48;100.00
23733;BME280;12047;53.450;-2.286;2023-09-12T06:55:04;101087.78;;;19.80;100.00
23733;BME280;12047;53.450;-2.286;2023-09-12T07:00:05;101099.19;;;19.82;100.00
23733;BME280;12047;53.450;-2.286;2023-09-12T07:05:09;101105.22;;;19.84;100.00
23733;BME280;12047;53.450;-2.286;2023-09-12T07:10:09;101102.00;;;20.31;100.00
23733;BME280;12047;53.450;-2.286;2023-09-12T07:15:10;101110.28;;;19.72;100.00
23733;BME280;12047;53.450;-2.286;2023-09-12T07:20:11;101110.22;;;20.23;100.00
23733;BME280;12047;53.450;-2.286;2023-09-12T07:25:14;101122.81;;;20.01;100.00
23733;BME280;12047;53.450;-2.286;2023-09-12T07:30:15;101119.09;;;20.38;100.00
23733;BME280;12047;53.450;-2.286;2023-09-12T07:35:16;101118.84;;;19.82;100.00
23733;BME280;12047;53.450;-2.286;2023-09-12T07:40:16;101121.19;;;19.85;100.00
23733;BME280;12047;53.450;-2.286;2023-09-12T07:45:17;101116.06;;;19.90;100.00
23733;BME280;12047;53.450;-2.286;2023-09-12T07:50:17;101131.75;;;20.23;100.00
23733;BME280;12047;53.450;-2.286;2023-09-12T07:55:19;101134.09;;;20.47;100.00
23733;BME280;12047;53.450;-2.286;2023-09-12T08:00:20;101137.75;;;20.40;100.00
23733;BME280;12047;53.450;-2.286;2023-09-12T08:05:21;101141.56;;;19.94;100.00
23733;BME280;12047;53.450;-2.286;2023-09-12T08:10:21;101132.69;;;21.00;100.00
23733;BME280;12047;53.450;-2.286;2023-09-12T08:15:22;101144.44;;;20.29;100.00
23733;BME280;12047;53.450;-2.286;2023-09-12T08:20:23;101146.84;;;20.60;100.00
23733;BME280;12047;53.450;-2.286;2023-09-12T08:25:23;101151.19;;;20.61;100.00
23733;BME280;12047;53.450;-2.286;2023-09-12T08:30:24;101164.25;;;20.85;100.00
23733;BME280;12047;53.450;-2.286;2023-09-12T08:35:25;101170.41;;;21.28;100.00
23733;BME280;12047;53.450;-2.286;2023-09-12T08:40:27;101176.72;;;20.44;100.00
23733;BME280;12047;53.450;-2.286;2023-09-12T08:45:29;101175.09;;;20.13;100.00
23733;BME280;12047;53.450;-2.286;2023-09-12T08:50:30;101182.47;;;20.41;100.00
23733;BME280;12047;53.450;-2.286;2023-09-12T08:55:33;101180.97;;;20.74;100.00
23733;BME280;12047;53.450;-2.286;2023-09-12T09:00:36;101188.50;;;20.85;100.00
23733;BME280;12047;53.450;-2.286;2023-09-12T09:05:37;101189.16;;;20.45;100.00
23733;BME280;12047;53.450;-2.286;2023-09-12T09:10:39;101204.25;;;21.10;100.00
23733;BME280;12047;53.450;-2.286;2023-09-12T09:15:40;101204.03;;;20.83;100.00
23733;BME280;12047;53.450;-2.286;2023-09-12T09:20:41;101206.91;;;21.03;100.00
23733;BME280;12047;53.450;-2.286;2023-09-12T09:25:51;101214.88;;;20.68;100.00
23733;BME280;12047;53.450;-2.286;2023-09-12T09:30:53;101216.00;;;20.81;100.00
23733;BME280;12047;53.450;-2.286;2023-09-12T09:36:05;101213.16;;;21.31;100.00
23733;BME280;12047;53.450;-2.286;2023-09-12T09:41:06;101221.09;;;20.90;100.00
23733;BME280;12047;53.450;-2.286;2023-09-12T09:46:15;101216.63;;;21.04;100.00
23733;BME280;12047;53.450;-2.286;2023-09-12T09:51:16;101214.09;;;21.45;100.00
23733;BME280;12047;53.450;-2.286;2023-09-12T09:56:16;101214.91;;;21.18;100.00
23733;BME280;12047;53.450;-2.286;2023-09-12T10:01:18;101217.59;;;21.39;100.00
23733;BME280;12047;53.450;-2.286;2023-09-12T10:06:20;101216.50;;;21.12;100.00
23733;BME280;12047;53.450;-2.286;2023-09-12T10:11:23;101217.31;;;21.62;100.00
23733;BME280;12047;53.450;-2.286;2023-09-12T10:16:30;101213.22;;;21.38;100.00
23733;BME280;12047;53.450;-2.286;2023-09-12T10:21:31;101220.28;;;21.18;100.00
23733;BME280;12047;53.450;-2.286;2023-09-12T10:26:34;101212.44;;;21.79;100.00
23733;BME280;12047;53.450;-2.286;2023-09-12T10:31:35;101214.56;;;21.21;100.00
23733;BME280;12047;53.450;-2.286;2023-09-12T10:36:38;101215.72;;;21.39;100.00
23733;BME280;12047;53.450;-2.286;2023-09-12T10:41:40;101223.16;;;21.65;100.00
23733;BME280;12047;53.450;-2.286;2023-09-12T10:46:41;101233.47;;;22.31;100.00
23733;BME280;12047;53.450;-2.286;2023-09-12T10:51:44;101221.34;;;21.79;100.00
23733;BME280;12047;53.450;-2.286;2023-09-12T10:56:45;101229.78;;;21.97;100.00
23733;BME280;12047;53.450;-2.286;2023-09-12T11:01:50;101234.38;;;22.03;100.00
23733;BME280;12047;53.450;-2.286;2023-09-12T11:06:51;101234.91;;;21.30;100.00
23733;BME280;12047;53.450;-2.286;2023-09-12T11:11:57;101231.94;;;21.46;100.00
23733;BME280;12047;53.450;-2.286;2023-09-12T11:22:22;101234.19;;;21.70;100.00
23733;BME280;12047;53.450;-2.286;2023-09-12T11:27:24;101236.41;;;21.11;100.00
23733;BME280;12047;53.450;-2.286;2023-09-12T11:32:34;101245.22;;;21.76;100.00
23733;BME280;12047;53.450;-2.286;2023-09-12T11:37:36;101244.34;;;21.68;100.00
23733;BME280;12047;53.450;-2.286;2023-09-12T11:42:40;101252.91;;;22.13;100.00
23733;BME280;12047;53.450;-2.286;2023-09-12T11:47:42;101252.81;;;21.65;100.00
23733;BME280;12047;53.450;-2.286;2023-09-12T11:52:43;101260.06;;;21.37;100.00
23733;BME280;12047;53.450;-2.286;2023-09-12T11:57:44;101268.81;;;21.39;100.00
23733;BME280;12047;53.450;-2.286;2023-09-12T12:02:45;101270.56;;;21.53;100.00
23733;BME280;12047;53.450;-2.286;2023-09-12T12:07:47;101273.88;;;21.49;100.00
23733;BME280;12047;53.450;-2.286;2023-09-12T12:12:52;101275.84;;;21.19;100.00
23733;BME280;12047;53.450;-2.286;2023-09-12T12:17:56;101285.97;;;21.59;100.00
23733;BME280;12047;53.450;-2.286;2023-09-12T12:22:57;101293.56;;;21.49;100.00
23733;BME280;12047;53.450;-2.286;2023-09-12T12:27:57;101295.97;;;21.65;100.00
23733;BME280;12047;53.450;-2.286;2023-09-12T12:33:00;101312.94;;;21.17;100.00
23733;BME280;12047;53.450;-2.286;2023-09-12T12:38:02;101294.69;;;21.61;100.00
23733;BME280;12047;53.450;-2.286;2023-09-12T12:43:02;101299.38;;;22.02;100.00
23733;BME280;12047;53.450;-2.286;2023-09-12T12:48:03;101298.25;;;21.96;100.00
23733;BME280;12047;53.450;-2.286;2023-09-12T12:53:04;101296.78;;;21.94;100.00
23733;BME280;12047;53.450;-2.286;2023-09-12T12:58:05;101301.38;;;21.65;100.00
23733;BME280;12047;53.450;-2.286;2023-09-12T13:03:05;101300.25;;;22.63;100.00
23733;BME280;12047;53.450;-2.286;2023-09-12T13:08:05;101310.34;;;21.72;100.00
23733;BME280;12047;53.450;-2.286;2023-09-12T13:13:06;101304.44;;;21.62;100.00
23733;BME280;12047;53.450;-2.286;2023-09-12T13:18:06;101305.81;;;22.08;100.00
23733;BME280;12047;53.450;-2.286;2023-09-12T13:23:07;101308.78;;;21.35;100.00
23733;BME280;12047;53.450;-2.286;2023-09-12T13:28:07;101306.31;;;21.90;100.00
23733;BME280;12047;53.450;-2.286;2023-09-12T13:33:08;101302.63;;;21.97;100.00
23733;BME280;12047;53.450;-2.286;2023-09-12T13:38:09;101324.19;;;21.42;100.00
23733;BME280;12047;53.450;-2.286;2023-09-12T13:43:10;101322.91;;;21.37;100.00
23733;BME280;12047;53.450;-2.286;2023-09-12T13:48:12;101330.78;;;22.16;100.00
23733;BME280;12047;53.450;-2.286;2023-09-12T13:53:13;101338.34;;;21.08;100.00
23733;BME280;12047;53.450;-2.286;2023-09-12T13:58:14;101328.56;;;21.98;100.00
23733;BME280;12047;53.450;-2.286;2023-09-12T14:03:15;101335.03;;;21.48;100.00
23733;BME280;12047;53.450;-2.286;2023-09-12T14:08:15;101338.31;;;21.44;100.00
23733;BME280;12047;53.450;-2.286;2023-09-12T14:13:16;101337.66;;;21.63;100.00
23733;BME280;12047;53.450;-2.286;2023-09-12T14:18:16;101332.19;;;21.84;100.00
23733;BME280;12047;53.450;-2.286;2023-09-12T14:23:17;101346.19;;;21.66;100.00
23733;BME280;12047;53.450;-2.286;2023-09-12T14:28:17;101344.81;;;21.13;100.00
23733;BME280;12047;53.450;-2.286;2023-09-12T14:33:18;101338.69;;;21.19;100.00
23733;BME280;12047;53.450;-2.286;2023-09-12T14:38:18;101345.69;;;21.35;100.00
23733;BME280;12047;53.450;-2.286;2023-09-12T14:43:19;101347.22;;;21.65;100.00
23733;BME280;12047;53.450;-2.286;2023-09-12T14:48:20;101347.69;;;22.31;100.00
23733;BME280;12047;53.450;-2.286;2023-09-12T14:53:20;101352.16;;;21.90;100.00
23733;BME280;12047;53.450;-2.286;2023-09-12T14:58:21;101360.66;;;21.87;100.00
23733;BME280;12047;53.450;-2.286;2023-09-12T15:03:21;101362.41;;;22.29;100.00
23733;BME280;12047;53.450;-2.286;2023-09-12T15:08:22;101367.72;;;21.88;100.00
23733;BME280;12047;53.450;-2.286;2023-09-12T15:13:22;101373.25;;;22.01;100.00
23733;BME280;12047;53.450;-2.286;2023-09-12T15:18:22;101384.22;;;21.14;100.00
23733;BME280;12047;53.450;-2.286;2023-09-12T15:23:23;101370.31;;;20.75;100.00
23733;BME280;12047;53.450;-2.286;2023-09-12T15:28:24;101379.47;;;20.80;100.00
23733;BME280;12047;53.450;-2.286;2023-09-12T15:33:24;101383.75;;;20.89;100.00
23733;BME280;12047;53.450;-2.286;2023-09-12T15:38:27;101377.16;;;21.49;100.00
23733;BME280;12047;53.450;-2.286;2023-09-12T15:43:28;101381.47;;;21.93;100.00
23733;BME280;12047;53.450;-2.286;2023-09-12T15:48:29;101382.94;;;21.95;100.00
23733;BME280;12047;53.450;-2.286;2023-09-12T15:53:29;101394.06;;;21.86;100.00
23733;BME280;12047;53.450;-2.286;2023-09-12T15:58:30;101394.22;;;22.05;100.00
23733;BME280;12047;53.450;-2.286;2023-09-12T16:03:34;101409.22;;;21.87;100.00
23733;BME280;12047;53.450;-2.286;2023-09-12T16:08:34;101404.72;;;21.30;100.00
23733;BME280;12047;53.450;-2.286;2023-09-12T16:13:35;101411.09;;;21.08;100.00
23733;BME280;12047;53.450;-2.286;2023-09-12T16:18:35;101400.16;;;20.94;100.00
23733;BME280;12047;53.450;-2.286;2023-09-12T16:23:37;101409.09;;;20.80;100.00
23733;BME280;12047;53.450;-2.286;2023-09-12T16:28:38;101424.41;;;21.45;100.00
23733;BME280;12047;53.450;-2.286;2023-09-12T16:33:38;101426.47;;;21.28;100.00
23733;BME280;12047;53.450;-2.286;2023-09-12T16:38:39;101434.00;;;20.82;100.00
23733;BME280;12047;53.450;-2.286;2023-09-12T16:43:40;101433.78;;;21.70;100.00
23733;BME280;12047;53.450;-2.286;2023-09-12T16:48:40;101455.25;;;21.21;100.00
23733;BME280;12047;53.450;-2.286;2023-09-12T16:53:42;101459.34;;;21.02;100.00
23733;BME280;12047;53.450;-2.286;2023-09-12T16:58:42;101466.78;;;21.00;100.00
23733;BME280;12047;53.450;-2.286;2023-09-12T17:03:44;101472.53;;;20.83;100.00
23733;BME280;12047;53.450;-2.286;2023-09-12T17:08:44;101467.03;;;21.05;100.00
23733;BME280;12047;53.450;-2.286;2023-09-12T17:13:45;101473.66;;;20.59;100.00
23733;BME280;12047;53.450;-2.286;2023-09-12T17:18:45;101470.88;;;20.82;100.00
23733;BME280;12047;53.450;-2.286;2023-09-12T17:23:46;101455.41;;;20.31;100.00
23733;BME280;12047;53.450;-2.286;2023-09-12T17:28:46;101451.66;;;20.41;100.00
23733;BME280;12047;53.450;-2.286;2023-09-12T17:33:48;101463.03;;;20.05;100.00
23733;BME280;12047;53.450;-2.286;2023-09-12T17:38:48;101473.19;;;20.41;100.00
23733;BME280;12047;53.450;-2.286;2023-09-12T17:43:49;101490.94;;;20.94;100.00
23733;BME280;12047;53.450;-2.286;2023-09-12T17:48:49;101485.72;;;21.22;100.00
23733;BME280;12047;53.450;-2.286;2023-09-12T17:53:50;101490.75;;;20.66;100.00
23733;BME280;12047;53.450;-2.286;2023-09-12T17:58:50;101500.84;;;20.12;100.00
23733;BME280;12047;53.450;-2.286;2023-09-12T18:03:51;101509.44;;;19.84;100.00
23733;BME280;12047;53.450;-2.286;2023-09-12T18:08:51;101525.50;;;19.78;100.00
23733;BME280;12047;53.450;-2.286;2023-09-12T18:13:52;101534.44;;;19.93;100.00
23733;BME280;12047;53.450;-2.286;2023-09-12T18:18:52;101534.19;;;19.80;100.00
23733;BME280;12047;53.450;-2.286;2023-09-12T18:23:53;101536.47;;;19.91;100.00
23733;BME280;12047;53.450;-2.286;2023-09-12T18:28:55;101537.25;;;19.77;100.00
23733;BME280;12047;53.450;-2.286;2023-09-12T18:33:59;101547.22;;;19.68;100.00
23733;BME280;12047;53.450;-2.286;2023-09-12T18:38:59;101545.97;;;20.24;100.00
23733;BME280;12047;53.450;-2.286;2023-09-12T18:44:00;101559.38;;;20.10;100.00
23733;BME280;12047;53.450;-2.286;2023-09-12T18:49:01;101562.19;;;19.62;100.00
23733;BME280;12047;53.450;-2.286;2023-09-12T18:54:03;101565.28;;;20.05;100.00
23733;BME280;12047;53.450;-2.286;2023-09-12T18:59:04;101577.44;;;19.31;100.00
23733;BME280;12047;53.450;-2.286;2023-09-12T19:09:22;101593.19;;;19.34;100.00
23733;BME280;12047;53.450;-2.286;2023-09-12T19:14:22;101606.44;;;19.83;100.00
23733;BME280;12047;53.450;-2.286;2023-09-12T19:19:23;101617.75;;;19.78;100.00
23733;BME280;12047;53.450;-2.286;2023-09-12T19:24:23;101622.94;;;20.56;100.00
23733;BME280;12047;53.450;-2.286;2023-09-12T19:29:24;101640.72;;;21.03;100.00
23733;BME280;12047;53.450;-2.286;2023-09-12T19:34:24;101647.66;;;20.60;100.00
23733;BME280;12047;53.450;-2.286;2023-09-12T19:39:25;101656.13;;;20.26;100.00
23733;BME280;12047;53.450;-2.286;2023-09-12T19:44:25;101662.94;;;19.19;100.00
23733;BME280;12047;53.450;-2.286;2023-09-12T19:49:28;101670.78;;;19.37;100.00
23733;BME280;12047;53.450;-2.286;2023-09-12T19:54:29;101666.34;;;18.97;100.00
23733;BME280;12047;53.450;-2.286;2023-09-12T19:59:29;101673.88;;;19.18;100.00
23733;BME280;12047;53.450;-2.286;2023-09-12T20:04:32;101672.66;;;19.84;100.00
23733;BME280;12047;53.450;-2.286;2023-09-12T20:09:33;101681.25;;;19.24;100.00
23733;BME280;12047;53.450;-2.286;2023-09-12T20:14:34;101681.22;;;19.32;100.00
23733;BME280;12047;53.450;-2.286;2023-09-12T20:19:34;101690.00;;;19.18;100.00
23733;BME280;12047;53.450;-2.286;2023-09-12T20:24:35;101698.09;;;19.01;100.00
23733;BME280;12047;53.450;-2.286;2023-09-12T20:29:35;101699.66;;;19.59;100.00
23733;BME280;12047;53.450;-2.286;2023-09-12T20:34:36;101699.53;;;19.36;100.00
23733;BME280;12047;53.450;-2.286;2023-09-12T20:39:36;101714.63;;;19.46;100.00
23733;BME280;12047;53.450;-2.286;2023-09-12T20:44:37;101714.66;;;19.54;100.00
23733;BME280;12047;53.450;-2.286;2023-09-12T20:49:37;101714.34;;;19.16;100.00
23733;BME280;12047;53.450;-2.286;2023-09-12T20:54:39;101710.47;;;19.27;100.00
23733;BME280;12047;53.450;-2.286;2023-09-12T20:59:40;101719.16;;;19.45;100.00
23733;BME280;12047;53.450;-2.286;2023-09-12T21:04:41;101729.47;;;19.25;100.00
23733;BME280;12047;53.450;-2.286;2023-09-12T21:09:41;101728.56;;;19.41;100.00
23733;BME280;12047;53.450;-2.286;2023-09-12T21:14:42;101727.06;;;19.47;100.00
23733;BME280;12047;53.450;-2.286;2023-09-12T21:19:42;101733.97;;;19.09;100.00
23733;BME280;12047;53.450;-2.286;2023-09-12T21:24:43;101727.91;;;19.31;100.00
23733;BME280;12047;53.450;-2.286;2023-09-12T21:29:45;101730.28;;;19.10;100.00
23733;BME280;12047;53.450;-2.286;2023-09-12T21:34:47;101728.09;;;19.29;100.00
23733;BME280;12047;53.450;-2.286;2023-09-12T21:39:47;101735.00;;;19.08;100.00
23733;BME280;12047;53.450;-2.286;2023-09-12T21:44:48;101737.00;;;19.14;100.00
23733;BME280;12047;53.450;-2.286;2023-09-12T21:49:48;101731.66;;;18.73;100.00
23733;BME280;12047;53.450;-2.286;2023-09-12T21:54:49;101739.03;;;18.79;100.00
23733;BME280;12047;53.450;-2.286;2023-09-12T21:59:50;101737.38;;;19.02;100.00
23733;BME280;12047;53.450;-2.286;2023-09-12T22:04:51;101754.13;;;19.13;100.00
23733;BME280;12047;53.450;-2.286;2023-09-12T22:09:52;101752.44;;;18.87;100.00
23733;BME280;12047;53.450;-2.286;2023-09-12T22:14:53;101755.81;;;19.22;100.00
23733;BME280;12047;53.450;-2.286;2023-09-12T22:19:53;101754.19;;;18.38;100.00
23733;BME280;12047;53.450;-2.286;2023-09-12T22:24:54;101757.09;;;18.53;100.00
23733;BME280;12047;53.450;-2.286;2023-09-12T22:29:55;101757.25;;;18.51;100.00
23733;BME280;12047;53.450;-2.286;2023-09-12T22:34:55;101754.84;;;18.32;100.00
23733;BME280;12047;53.450;-2.286;2023-09-12T22:39:55;101761.06;;;18.41;100.00
23733;BME280;12047;53.450;-2.286;2023-09-12T22:44:56;101771.13;;;18.39;100.00
23733;BME280;12047;53.450;-2.286;2023-09-12T22:49:57;101764.09;;;17.95;100.00
23733;BME280;12047;53.450;-2.286;2023-09-12T22:54:59;101770.00;;;18.07;100.00
23733;BME280;12047;53.450;-2.286;2023-09-12T22:59:59;101773.56;;;18.16;100.00
23733;BME280;12047;53.450;-2.286;2023-09-12T23:05:00;101777.56;;;18.04;100.00
23733;BME280;12047;53.450;-2.286;2023-09-12T23:10:00;101785.47;;;17.61;100.00
23733;BME280;12047;53.450;-2.286;2023-09-12T23:15:01;101784.13;;;18.17;100.00
23733;BME280;12047;53.450;-2.286;2023-09-12T23:20:05;101800.97;;;18.35;100.00
23733;BME280;12047;53.450;-2.286;2023-09-12T23:25:07;101814.09;;;18.47;100.00
23733;BME280;12047;53.450;-2.286;2023-09-12T23:30:10;101811.34;;;18.73;100.00
23733;BME280;12047;53.450;-2.286;2023-09-12T23:35:11;101815.06;;;18.80;100.00
23733;BME280;12047;53.450;-2.286;2023-09-12T23:40:11;101815.56;;;18.83;100.00
23733;BME280;12047;53.450;-2.286;2023-09-12T23:45:13;101817.88;;;18.70;100.00
23733;BME280;12047;53.450;-2.286;2023-09-12T23:50:13;101826.09;;;17.66;100.00
23733;BME280;12047;53.450;-2.286;2023-09-12T23:55:14;101825.41;;;18.24;100.00
